Terminal Aerodrome Forecast
Issued by NWS Buffalo, NY

Home | Current Version | Previous Version | Text Only | Print | Product List | Glossary On
Versions: 1 2 3 4 5 6 7 8 9 10 11 12 13 14 15 16 17 18 19 20 21 22 23 24 25 26 27 28 29 30
000
FTUS41 KBUF 151733
TAFBUF
TAF
KBUF 151733Z 1518/1618 20008KT P6SM OVC040
     FM152200 21014G26KT 1SM -SN VCTS OVC015CB
      TEMPO 1522/1601 1/4SM +SN OVC009
     FM160100 24007KT 3SM -SN BKN035
     FM160200 26009KT P6SM SCT050
     FM161700 29007KT P6SM OVC035=

USA.gov is the U.S. government's official web portal to all federal, state and local government web resources and services.